Time;durP1;ratioP1;P1;durP2;ratioP2;P2;SDS_P1;SDS_P2;PMS_P1;PMS_P2;Temp;Humidity;BMP_temperature;BMP_pressure;BME280_temperature;BME280_humidity;BME280_pressure;Samples;Min_cycle;Max_cycle;Signal;HPM_P1;HPM_P2
2022/01/08 00:02:23;;;;;;;7.75;4.93;;;3.20;93.70;;;;;;4847180;29;20044;-67
2022/01/08 00:04:49;;;;;;;7.97;5.28;;;3.20;93.90;;;;;;4847545;29;20110;-67
2022/01/08 00:07:15;;;;;;;8.70;4.65;;;3.20;93.80;;;;;;4846286;29;20049;-67
2022/01/08 00:09:40;;;;;;;6.50;4.90;;;3.30;94.00;;;;;;4861128;29;20829;-67
2022/01/08 00:12:07;;;;;;;8.38;4.80;;;3.30;93.50;;;;;;4847330;29;20156;-67
2022/01/08 00:14:32;;;;;;;6.72;4.97;;;3.10;93.30;;;;;;4844340;29;20041;-68
2022/01/08 00:16:58;;;;;;;7.57;5.03;;;3.10;93.70;;;;;;4845884;29;20033;-67
2022/01/08 00:19:24;;;;;;;4.35;3.65;;;3.10;93.60;;;;;;4848488;29;20660;-68
2022/01/08 00:21:50;;;;;;;11.23;4.68;;;3.10;93.80;;;;;;4848675;29;20038;-67
2022/01/08 00:24:16;;;;;;;6.20;4.28;;;3.10;93.70;;;;;;4846346;29;20774;-68
2022/01/08 00:26:42;;;;;;;8.60;4.22;;;3.20;93.80;;;;;;4831559;29;20064;-68
2022/01/08 00:29:08;;;;;;;6.32;4.85;;;3.20;93.80;;;;;;4848186;29;20043;-67
2022/01/08 00:31:33;;;;;;;5.22;3.95;;;3.10;93.70;;;;;;4848217;29;20047;-67
2022/01/08 00:33:59;;;;;;;7.18;4.25;;;3.10;93.80;;;;;;4847489;29;20064;-68
2022/01/08 00:36:25;;;;;;;6.93;3.92;;;3.10;93.90;;;;;;4846071;29;20541;-67
2022/01/08 00:38:51;;;;;;;6.13;4.80;;;3.20;94.00;;;;;;4846342;29;20852;-68
2022/01/08 00:41:16;;;;;;;8.75;4.43;;;3.20;93.90;;;;;;4846188;29;20046;-67
2022/01/08 00:43:42;;;;;;;6.55;4.57;;;3.20;94.10;;;;;;4847699;29;20032;-67
2022/01/08 00:46:08;;;;;;;5.93;4.40;;;3.10;94.00;;;;;;4863905;29;20038;-68
2022/01/08 00:48:33;;;;;;;9.27;5.47;;;3.00;94.40;;;;;;4846796;29;20747;-67
2022/01/08 00:50:59;;;;;;;7.47;5.30;;;2.90;94.80;;;;;;4845948;29;20919;-66
2022/01/08 00:53:25;;;;;;;6.63;5.10;;;3.00;94.80;;;;;;4846211;29;20745;-67
2022/01/08 00:55:51;;;;;;;7.35;5.38;;;3.00;94.70;;;;;;4845321;29;20037;-66
2022/01/08 00:58:17;;;;;;;8.77;5.70;;;3.10;94.50;;;;;;4862138;29;20093;-68
2022/01/08 01:00:43;;;;;;;8.95;5.55;;;3.10;94.60;;;;;;4845482;29;20117;-68
2022/01/08 01:03:09;;;;;;;8.60;5.72;;;3.20;94.50;;;;;;4845531;29;20159;-68
2022/01/08 01:05:34;;;;;;;7.43;5.75;;;3.20;94.30;;;;;;4845614;29;20100;-68
2022/01/08 01:08:00;;;;;;;7.20;4.65;;;3.30;94.00;;;;;;4859790;29;20329;-68
2022/01/08 01:10:26;;;;;;;8.18;5.38;;;3.20;94.20;;;;;;4846111;29;20563;-68
2022/01/08 01:12:52;;;;;;;7.80;5.72;;;3.20;94.10;;;;;;4846077;29;20714;-68
2022/01/08 01:15:18;;;;;;;7.35;5.30;;;3.10;94.40;;;;;;4847602;29;20045;-66
2022/01/08 01:17:45;;;;;;;9.52;5.75;;;3.20;94.30;;;;;;4845413;29;20025;-67
2022/01/08 01:20:13;;;;;;;8.38;5.60;;;3.20;94.20;;;;;;4845713;29;20033;-67
2022/01/08 01:22:51;;;;;;;8.18;5.35;;;3.30;94.00;;;;;;4848018;29;20125;-67
2022/01/08 01:25:22;;;;;;;7.97;5.53;;;3.30;93.90;;;;;;4847618;29;20041;-67
2022/01/08 01:28:17;;;;;;;8.73;5.70;;;3.30;94.00;;;;;;4847621;29;20048;-67
2022/01/08 01:49:18;;;;;;;7.05;5.53;;;3.30;93.70;;;;;;4852431;29;20037;-67
2022/01/08 01:51:44;;;;;;;11.32;6.93;;;3.20;93.90;;;;;;4850978;29;20025;-68
2022/01/08 01:54:10;;;;;;;9.30;6.25;;;3.10;94.20;;;;;;4851468;29;20048;-66
2022/01/08 01:56:36;;;;;;;9.98;5.65;;;3.10;94.30;;;;;;4854111;29;20040;-66
2022/01/08 01:59:02;;;;;;;7.32;5.55;;;3.00;94.20;;;;;;4851245;29;20072;-66
2022/01/08 02:01:28;;;;;;;9.10;6.00;;;3.00;94.10;;;;;;4852333;29;20070;-68
2022/01/08 02:03:54;;;;;;;10.10;6.03;;;3.00;94.30;;;;;;4852303;29;20064;-67
2022/01/08 02:06:20;;;;;;;9.75;6.45;;;3.00;94.30;;;;;;4852802;29;20130;-67
2022/01/08 02:08:45;;;;;;;9.40;5.85;;;3.00;94.20;;;;;;4851082;29;20048;-68
2022/01/08 02:11:11;;;;;;;9.15;6.32;;;3.10;94.20;;;;;;4851338;29;20041;-68
2022/01/08 02:13:37;;;;;;;9.15;5.93;;;3.10;94.10;;;;;;4851021;29;20029;-68
2022/01/08 02:16:06;;;;;;;11.45;6.88;;;3.10;94.00;;;;;;4851010;29;20380;-68
2022/01/08 02:18:33;;;;;;;8.77;5.88;;;3.10;94.10;;;;;;4852288;29;20041;-67
2022/01/08 02:21:00;;;;;;;10.77;6.25;;;3.10;94.10;;;;;;4852212;29;20037;-68
2022/01/08 02:23:26;;;;;;;9.75;6.30;;;3.20;94.20;;;;;;4853133;29;20045;-68
2022/01/08 02:26:04;;;;;;;11.45;6.13;;;3.30;94.10;;;;;;4854603;29;20044;-68
2022/01/08 02:28:31;;;;;;;8.55;5.78;;;3.40;93.80;;;;;;4852842;29;20045;-68
2022/01/08 02:30:56;;;;;;;8.52;6.18;;;3.40;93.90;;;;;;4851970;29;20034;-68
2022/01/08 02:33:26;;;;;;;7.80;5.68;;;3.50;93.80;;;;;;4866934;29;20097;-68
2022/01/08 02:35:53;;;;;;;9.68;6.28;;;3.50;93.50;;;;;;4835347;29;20034;-67
2022/01/08 02:38:19;;;;;;;7.75;5.32;;;3.50;93.30;;;;;;4852246;29;20041;-68
2022/01/08 02:40:53;;;;;;;9.18;6.30;;;3.60;93.50;;;;;;4852674;29;20522;-68
2022/01/08 02:43:19;;;;;;;7.82;5.50;;;3.60;93.60;;;;;;4852766;29;20037;-68
2022/01/08 02:45:45;;;;;;;9.65;6.35;;;3.60;93.40;;;;;;4851669;29;20105;-68
2022/01/08 02:48:10;;;;;;;13.40;6.60;;;3.70;93.20;;;;;;4852092;29;20052;-67
2022/01/08 02:50:36;;;;;;;8.75;6.22;;;3.70;93.20;;;;;;4848892;29;20048;-68
2022/01/08 02:53:02;;;;;;;8.52;6.15;;;3.70;93.00;;;;;;4849156;29;20045;-68
2022/01/08 02:55:28;;;;;;;7.75;5.30;;;3.80;93.10;;;;;;4849500;29;20033;-68
2022/01/08 02:57:53;;;;;;;8.23;5.13;;;3.70;93.10;;;;;;4849041;29;20562;-68
2022/01/08 03:00:20;;;;;;;7.63;5.88;;;3.80;93.20;;;;;;4849597;29;20044;-68
2022/01/08 03:02:48;;;;;;;7.90;5.22;;;3.90;92.90;;;;;;4849272;29;20049;-67
2022/01/08 03:05:14;;;;;;;10.38;5.57;;;3.90;92.70;;;;;;4848653;29;20498;-68
2022/01/08 03:07:46;;;;;;;9.35;5.88;;;3.90;92.70;;;;;;4846267;29;20640;-68
2022/01/08 03:10:14;;;;;;;10.02;6.28;;;3.90;92.30;;;;;;4848151;29;20030;-68
2022/01/08 03:12:43;;;;;;;9.77;5.68;;;3.80;92.30;;;;;;4862001;29;20186;-68
2022/01/08 03:15:11;;;;;;;7.10;4.43;;;3.60;92.50;;;;;;4863126;29;20037;-67
2022/01/08 03:17:38;;;;;;;7.18;5.72;;;3.50;92.60;;;;;;4847731;29;20145;-68
2022/01/08 03:20:07;;;;;;;7.68;5.03;;;3.50;92.80;;;;;;4847822;29;20038;-68
2022/01/08 03:22:33;;;;;;;8.48;5.53;;;3.40;92.80;;;;;;4847246;29;20492;-67
2022/01/08 03:25:00;;;;;;;7.18;5.22;;;3.40;93.00;;;;;;4848958;29;20052;-68
2022/01/08 03:27:26;;;;;;;9.07;5.57;;;3.40;93.00;;;;;;4848936;29;20049;-67
2022/01/08 03:29:52;;;;;;;7.65;5.20;;;3.40;92.90;;;;;;4848244;29;20041;-68
2022/01/08 03:32:20;;;;;;;8.00;5.22;;;3.40;93.00;;;;;;4847843;29;20041;-68
2022/01/08 03:34:45;;;;;;;9.05;5.65;;;3.40;92.80;;;;;;4847850;29;20041;-67
2022/01/08 03:37:11;;;;;;;7.50;5.07;;;3.40;93.00;;;;;;4861182;29;20983;-68
2022/01/08 03:39:37;;;;;;;7.07;4.80;;;3.40;93.10;;;;;;4862594;29;20033;-68
2022/01/08 03:42:03;;;;;;;9.38;5.50;;;3.40;93.20;;;;;;4865779;29;20033;-68
2022/01/08 03:44:29;;;;;;;6.57;5.25;;;3.40;93.00;;;;;;4847576;29;20626;-68
2022/01/08 03:47:01;;;;;;;8.50;5.88;;;3.40;92.90;;;;;;4847305;29;20050;-67
2022/01/08 03:49:27;;;;;;;7.10;5.15;;;3.40;93.10;;;;;;4847943;29;20045;-68
2022/01/08 03:51:54;;;;;;;10.88;5.70;;;3.40;93.00;;;;;;4848096;29;20076;-68
2022/01/08 03:54:20;;;;;;;11.85;5.70;;;3.50;92.90;;;;;;4849520;29;20057;-69
2022/01/08 03:56:46;;;;;;;5.75;4.30;;;3.50;92.90;;;;;;4852008;29;20051;-68
2022/01/08 03:59:12;;;;;;;7.18;5.10;;;3.50;92.90;;;;;;4847972;29;20045;-68
2022/01/08 04:01:38;;;;;;;9.35;5.43;;;3.60;92.80;;;;;;4847561;29;20037;-68
2022/01/08 04:04:04;;;;;;;8.85;5.78;;;3.70;92.80;;;;;;4849671;29;20767;-68
2022/01/08 04:06:30;;;;;;;7.63;5.40;;;3.70;92.50;;;;;;4848023;29;20064;-68
2022/01/08 04:08:57;;;;;;;7.53;5.60;;;3.70;92.50;;;;;;4848374;29;20589;-68
2022/01/08 04:11:25;;;;;;;7.75;5.60;;;3.80;92.60;;;;;;4848645;29;20041;-68
2022/01/08 04:13:52;;;;;;;8.50;5.70;;;3.80;92.60;;;;;;4847943;29;20073;-68
2022/01/08 04:16:23;;;;;;;8.68;5.82;;;3.80;92.60;;;;;;4847586;29;20038;-68
2022/01/08 04:18:49;;;;;;;8.50;5.75;;;3.90;92.60;;;;;;4864285;29;20030;-68
2022/01/08 04:24:05;;;;;;;8.57;5.18;;;3.90;92.60;;;;;;4846556;29;20347;-68
2022/01/08 04:26:31;;;;;;;9.35;5.97;;;3.90;92.60;;;;;;4847081;29;20065;-68
2022/01/08 04:28:57;;;;;;;10.45;6.35;;;4.00;92.40;;;;;;4846521;29;20132;-68
2022/01/08 04:31:24;;;;;;;7.15;5.45;;;3.90;92.30;;;;;;4847039;29;20152;-68
2022/01/08 04:33:51;;;;;;;7.32;5.30;;;3.90;92.40;;;;;;4847584;29;20036;-69
2022/01/08 04:36:17;;;;;;;8.02;5.72;;;3.90;92.40;;;;;;4846540;29;20817;-68
2022/01/08 04:38:43;;;;;;;7.18;5.30;;;4.00;92.50;;;;;;4845756;29;20048;-68
2022/01/08 04:41:09;;;;;;;8.93;5.57;;;4.00;92.20;;;;;;4846775;29;20549;-68
2022/01/08 04:43:37;;;;;;;7.78;5.45;;;4.00;92.10;;;;;;4846010;29;20044;-68
2022/01/08 04:46:04;;;;;;;8.57;5.20;;;4.00;92.10;;;;;;4846727;29;20116;-68
2022/01/08 04:48:30;;;;;;;8.10;5.38;;;4.00;92.20;;;;;;4846417;29;20045;-69
2022/01/08 04:50:56;;;;;;;9.40;5.53;;;4.10;91.90;;;;;;4847278;29;20966;-68
2022/01/08 04:53:22;;;;;;;8.43;6.03;;;4.00;92.00;;;;;;4845985;29;20112;-68
2022/01/08 04:55:48;;;;;;;7.65;5.15;;;4.00;92.00;;;;;;4846603;29;20113;-70
2022/01/08 04:58:14;;;;;;;7.63;5.68;;;4.10;92.20;;;;;;4846663;29;20041;-68
2022/01/08 05:00:39;;;;;;;7.88;5.45;;;4.10;92.20;;;;;;4846353;29;20025;-68
2022/01/08 05:03:05;;;;;;;9.30;6.28;;;4.10;92.20;;;;;;4845874;29;20859;-69
2022/01/08 05:05:32;;;;;;;7.50;5.22;;;4.10;92.30;;;;;;4846141;29;20037;-68
2022/01/08 05:07:57;;;;;;;9.63;6.35;;;4.10;92.30;;;;;;4846969;29;20049;-68
2022/01/08 05:10:23;;;;;;;10.48;7.05;;;4.10;91.90;;;;;;4846549;29;20045;-68
2022/01/08 05:12:49;;;;;;;10.00;6.60;;;4.10;92.00;;;;;;4846476;29;20505;-68
2022/01/08 05:15:17;;;;;;;9.75;6.30;;;4.00;92.20;;;;;;4847023;29;20037;-68
2022/01/08 05:17:45;;;;;;;8.95;6.00;;;3.90;92.20;;;;;;4830087;29;20026;-68
2022/01/08 05:20:13;;;;;;;10.52;6.65;;;3.90;92.30;;;;;;4859103;29;20037;-68
2022/01/08 05:25:13;;;;;;;9.00;5.85;;;3.90;92.20;;;;;;4848746;29;20136;-68
2022/01/08 05:27:39;;;;;;;8.82;5.70;;;3.80;92.40;;;;;;4846027;29;20034;-68
2022/01/08 05:30:05;;;;;;;7.63;5.45;;;3.80;92.40;;;;;;4847444;29;20038;-68
2022/01/08 05:32:31;;;;;;;8.65;6.40;;;3.90;92.40;;;;;;4846600;29;20041;-68
2022/01/08 05:34:57;;;;;;;9.73;6.15;;;3.90;92.30;;;;;;4846750;29;20041;-68
2022/01/08 05:37:23;;;;;;;7.40;5.50;;;3.90;92.30;;;;;;4846577;29;20041;-68
2022/01/08 05:39:50;;;;;;;8.80;5.63;;;3.90;92.30;;;;;;4845897;29;20055;-68
2022/01/08 05:42:16;;;;;;;6.93;5.05;;;3.90;92.40;;;;;;4847487;29;20050;-68
2022/01/08 05:44:42;;;;;;;7.15;5.15;;;3.90;92.40;;;;;;4848038;29;20029;-68
2022/01/08 05:47:07;;;;;;;7.80;5.15;;;3.90;92.40;;;;;;4847314;29;20046;-67
2022/01/08 05:49:33;;;;;;;7.25;4.85;;;3.90;92.40;;;;;;4847247;29;20029;-69
2022/01/08 05:51:59;;;;;;;8.25;5.22;;;3.90;92.40;;;;;;4863342;29;20055;-67
2022/01/08 05:54:25;;;;;;;7.78;5.38;;;3.90;92.30;;;;;;4847070;29;20041;-67
2022/01/08 05:56:51;;;;;;;7.90;4.60;;;3.80;92.20;;;;;;4847970;29;20084;-68
2022/01/08 05:59:17;;;;;;;7.30;4.70;;;3.70;92.20;;;;;;4845109;29;20042;-66
2022/01/08 06:01:43;;;;;;;7.05;4.95;;;3.60;92.20;;;;;;4846848;29;20044;-65
2022/01/08 06:04:09;;;;;;;7.78;5.35;;;3.50;92.30;;;;;;4847059;29;20042;-66
2022/01/08 06:06:35;;;;;;;7.88;5.90;;;3.60;92.40;;;;;;4847157;29;20046;-66
2022/01/08 06:09:02;;;;;;;7.43;5.13;;;3.60;92.50;;;;;;4846823;29;20037;-66
2022/01/08 06:11:27;;;;;;;7.50;5.00;;;3.70;92.50;;;;;;4845793;29;20055;-66
2022/01/08 06:13:53;;;;;;;6.95;5.32;;;3.70;92.60;;;;;;4846335;29;20041;-67
2022/01/08 06:16:19;;;;;;;8.15;5.40;;;3.80;92.60;;;;;;4845326;29;20044;-67
2022/01/08 06:18:45;;;;;;;8.98;5.88;;;3.80;92.70;;;;;;4848850;29;20434;-66
2022/01/08 06:21:10;;;;;;;7.95;5.28;;;3.80;92.70;;;;;;4844404;29;20127;-67
2022/01/08 06:23:36;;;;;;;7.50;5.07;;;3.90;92.70;;;;;;4844455;29;20037;-66
2022/01/08 06:26:04;;;;;;;7.35;4.97;;;3.90;92.70;;;;;;4851600;29;20105;-67
2022/01/08 06:28:30;;;;;;;8.48;6.05;;;4.00;92.70;;;;;;4864395;29;20072;-67
2022/01/08 06:30:56;;;;;;;8.95;5.45;;;4.00;92.80;;;;;;4848586;29;20597;-67
2022/01/08 06:33:22;;;;;;;8.95;5.75;;;4.00;92.80;;;;;;4848914;29;20046;-67
2022/01/08 06:35:51;;;;;;;8.18;5.78;;;4.10;92.70;;;;;;4851076;29;20038;-67
2022/01/08 06:38:18;;;;;;;8.20;5.70;;;4.10;92.60;;;;;;4851948;29;20045;-67
2022/01/08 06:40:44;;;;;;;7.60;5.32;;;4.10;92.70;;;;;;4851067;29;20111;-67
2022/01/08 06:43:09;;;;;;;7.40;5.03;;;4.00;92.50;;;;;;4869026;29;20854;-67
2022/01/08 06:45:35;;;;;;;8.82;5.07;;;3.90;92.50;;;;;;4848536;29;20045;-67
2022/01/08 06:48:01;;;;;;;7.10;5.28;;;3.80;92.50;;;;;;4849935;29;20037;-67
2022/01/08 06:50:28;;;;;;;7.40;5.50;;;3.80;92.40;;;;;;4864671;29;20871;-67
2022/01/08 06:52:55;;;;;;;7.55;5.20;;;3.70;92.20;;;;;;4850108;29;20037;-67
2022/01/08 06:55:21;;;;;;;8.68;5.60;;;3.60;92.30;;;;;;4851508;29;20037;-66
2022/01/08 06:57:46;;;;;;;8.18;5.53;;;3.50;92.30;;;;;;4848072;29;20486;-65
2022/01/08 07:00:12;;;;;;;8.43;6.03;;;3.50;92.50;;;;;;4868849;29;20044;-67
2022/01/08 07:02:38;;;;;;;7.00;5.13;;;3.40;92.50;;;;;;4868516;29;20533;-67
2022/01/08 07:05:04;;;;;;;9.32;5.90;;;3.40;92.60;;;;;;4855745;29;20124;-66
2022/01/08 07:07:30;;;;;;;8.68;5.57;;;3.40;92.70;;;;;;4850468;29;20077;-67
2022/01/08 07:09:55;;;;;;;9.40;6.30;;;3.40;92.70;;;;;;4853697;29;20037;-67
2022/01/08 07:12:21;;;;;;;13.60;8.70;;;3.40;92.90;;;;;;4854614;29;20045;-67
2022/01/08 07:14:47;;;;;;;12.32;7.80;;;3.40;92.70;;;;;;4849192;29;20041;-66
2022/01/08 07:17:13;;;;;;;12.75;7.70;;;3.40;92.40;;;;;;4847679;29;20073;-66
2022/01/08 07:19:38;;;;;;;9.85;6.78;;;3.40;92.50;;;;;;4846292;29;20029;-66
2022/01/08 07:22:04;;;;;;;9.90;6.65;;;3.40;92.60;;;;;;4849804;29;20120;-67
2022/01/08 07:24:30;;;;;;;10.50;6.28;;;3.30;92.60;;;;;;4851212;29;20034;-67
2022/01/08 07:26:55;;;;;;;7.97;5.50;;;3.30;92.70;;;;;;4866906;29;20576;-66
2022/01/08 07:29:21;;;;;;;9.35;6.40;;;3.20;92.80;;;;;;4845537;29;20553;-66
2022/01/08 07:31:46;;;;;;;10.27;7.03;;;3.20;92.90;;;;;;4849471;29;20865;-67
2022/01/08 07:34:12;;;;;;;11.55;7.88;;;3.20;92.90;;;;;;4852618;29;20870;-67
2022/01/08 07:36:38;;;;;;;12.82;8.68;;;3.10;92.80;;;;;;4850093;29;20065;-67
2022/01/08 07:39:04;;;;;;;10.23;7.75;;;3.20;92.80;;;;;;4856807;29;20041;-67
2022/01/08 07:41:29;;;;;;;13.13;7.78;;;3.20;92.70;;;;;;4847830;29;20569;-67
2022/01/08 07:43:55;;;;;;;11.43;7.07;;;3.10;92.80;;;;;;4855821;29;20053;-67
2022/01/08 07:46:21;;;;;;;8.50;5.60;;;3.20;93.00;;;;;;4848975;29;20037;-67
2022/01/08 07:48:47;;;;;;;8.95;6.07;;;3.20;93.00;;;;;;4848225;29;20029;-66
2022/01/08 07:51:13;;;;;;;11.95;7.55;;;3.20;93.10;;;;;;4853447;29;20438;-67
2022/01/08 07:53:39;;;;;;;10.55;6.85;;;3.20;93.00;;;;;;4866207;29;20037;-67
2022/01/08 07:56:05;;;;;;;9.93;6.40;;;3.20;92.90;;;;;;4848344;29;20034;-67
2022/01/08 07:58:30;;;;;;;8.95;5.85;;;3.20;93.00;;;;;;4855945;29;20872;-67
2022/01/08 08:00:57;;;;;;;15.70;8.85;;;3.30;93.10;;;;;;4851579;29;20041;-67
2022/01/08 08:03:23;;;;;;;16.35;10.07;;;3.30;93.20;;;;;;4851946;29;20040;-67
2022/01/08 08:05:49;;;;;;;15.05;8.90;;;3.40;93.20;;;;;;4848155;29;20052;-67
2022/01/08 08:08:19;;;;;;;11.63;7.65;;;3.40;93.10;;;;;;4848199;29;20029;-67
2022/01/08 08:10:50;;;;;;;9.55;7.07;;;3.50;93.30;;;;;;4849091;29;20083;-67
2022/01/08 08:13:21;;;;;;;10.95;7.55;;;3.50;93.30;;;;;;4849669;29;20053;-66
2022/01/08 08:15:48;;;;;;;10.73;6.55;;;3.50;93.40;;;;;;4865379;29;20526;-68
2022/01/08 08:18:13;;;;;;;11.10;7.07;;;3.60;93.20;;;;;;4851485;29;20073;-67
2022/01/08 08:20:41;;;;;;;8.68;6.10;;;3.60;93.10;;;;;;4854016;29;20038;-67
2022/01/08 08:23:07;;;;;;;10.02;6.05;;;3.70;93.00;;;;;;4851692;29;20029;-67
2022/01/08 08:25:32;;;;;;;10.57;6.20;;;3.70;92.80;;;;;;4852068;29;20112;-68
2022/01/08 08:27:58;;;;;;;10.15;6.45;;;3.70;92.80;;;;;;4848839;29;20100;-67
2022/01/08 08:30:24;;;;;;;8.52;5.78;;;3.80;92.80;;;;;;4849547;29;20044;-67
2022/01/08 08:32:50;;;;;;;11.18;5.85;;;3.80;92.70;;;;;;4854564;29;20033;-67
2022/01/08 08:35:16;;;;;;;10.55;6.10;;;3.80;92.70;;;;;;4848546;29;20044;-67
2022/01/08 08:37:43;;;;;;;9.48;6.80;;;3.80;92.50;;;;;;4850356;29;20052;-67
2022/01/08 08:40:11;;;;;;;10.52;6.25;;;3.90;92.50;;;;;;4852088;29;20041;-67
2022/01/08 08:42:37;;;;;;;8.27;5.60;;;3.90;92.40;;;;;;4853784;29;20201;-67
2022/01/08 08:45:04;;;;;;;15.20;9.02;;;3.90;92.30;;;;;;4852010;29;20112;-67
2022/01/08 08:47:31;;;;;;;10.40;6.18;;;3.90;92.40;;;;;;4849243;29;20034;-67
2022/01/08 08:50:01;;;;;;;10.80;7.63;;;3.90;92.00;;;;;;4853633;29;20041;-67
2022/01/08 08:52:27;;;;;;;14.90;8.38;;;3.90;92.00;;;;;;4851091;29;20074;-67
2022/01/08 08:54:53;;;;;;;12.70;7.63;;;3.90;91.90;;;;;;4846587;29;21045;-67
2022/01/08 08:57:19;;;;;;;15.77;9.88;;;3.80;91.90;;;;;;4850544;29;20467;-67
2022/01/08 08:59:45;;;;;;;11.00;6.50;;;3.80;92.00;;;;;;4864864;29;20042;-67
2022/01/08 09:02:11;;;;;;;9.80;6.07;;;3.80;92.10;;;;;;4861349;29;20029;-67
2022/01/08 09:04:38;;;;;;;7.53;5.53;;;3.80;92.10;;;;;;4847832;29;20044;-67
2022/01/08 09:07:04;;;;;;;11.15;7.28;;;3.80;92.10;;;;;;4846669;29;21044;-67
2022/01/08 09:09:30;;;;;;;15.52;8.40;;;3.80;92.00;;;;;;4864856;29;20047;-67
2022/01/08 09:11:56;;;;;;;11.88;7.13;;;3.80;92.10;;;;;;4856307;29;20041;-67
2022/01/08 09:14:22;;;;;;;10.95;6.75;;;3.80;92.10;;;;;;4849688;29;20078;-67
2022/01/08 09:16:54;;;;;;;8.82;6.50;;;3.80;92.10;;;;;;4849997;29;20048;-67
2022/01/08 09:19:21;;;;;;;9.50;6.05;;;3.80;92.30;;;;;;4847741;29;20033;-68
2022/01/08 09:21:48;;;;;;;10.60;6.93;;;3.90;92.20;;;;;;4852276;29;20034;-67
2022/01/08 09:24:15;;;;;;;9.75;7.22;;;3.90;92.30;;;;;;4851755;29;20041;-67
2022/01/08 09:26:41;;;;;;;11.55;7.60;;;4.10;92.30;;;;;;4848469;29;20826;-67
2022/01/08 09:29:07;;;;;;;9.05;6.95;;;4.30;92.60;;;;;;4846443;29;20120;-67
2022/01/08 09:31:33;;;;;;;12.15;7.53;;;4.80;92.30;;;;;;4849254;29;20037;-67
2022/01/08 09:33:59;;;;;;;10.80;7.20;;;5.30;90.90;;;;;;4845915;29;20064;-69
2022/01/08 09:36:25;;;;;;;8.95;5.95;;;5.50;90.20;;;;;;4853662;29;20063;-67
2022/01/08 09:38:51;;;;;;;9.57;6.53;;;5.90;88.70;;;;;;4848273;29;20033;-67
2022/01/08 09:41:17;;;;;;;14.68;9.48;;;6.00;87.00;;;;;;4844957;29;20087;-67
2022/01/08 09:43:43;;;;;;;46.85;21.60;;;6.20;86.40;;;;;;4849685;29;20194;-68
2022/01/08 09:46:09;;;;;;;41.75;22.30;;;6.30;84.70;;;;;;4858672;29;20045;-68
2022/01/08 09:48:34;;;;;;;35.47;18.17;;;6.20;83.90;;;;;;4847781;29;20049;-67
2022/01/08 09:51:00;;;;;;;20.10;10.57;;;6.00;84.70;;;;;;4844246;29;20136;-67
2022/01/08 09:53:26;;;;;;;23.20;11.45;;;5.80;85.20;;;;;;4845166;29;20046;-66
2022/01/08 09:55:52;;;;;;;27.02;14.15;;;5.60;85.80;;;;;;4856311;29;20043;-65
2022/01/08 09:58:19;;;;;;;27.20;13.75;;;5.40;86.40;;;;;;4844623;29;20037;-65
2022/01/08 10:00:46;;;;;;;20.08;10.32;;;5.20;87.10;;;;;;4850414;29;20148;-66
2022/01/08 10:03:33;;;;;;;20.85;11.45;;;5.20;87.20;;;;;;4863036;29;20128;-67
2022/01/08 10:06:00;;;;;;;19.05;9.18;;;5.10;88.00;;;;;;4850305;29;20065;-67
2022/01/08 10:08:31;;;;;;;15.70;8.90;;;5.20;88.30;;;;;;4851084;29;20049;-66
2022/01/08 10:11:03;;;;;;;22.30;10.70;;;5.40;87.90;;;;;;4847232;29;20033;-65
2022/01/08 10:13:35;;;;;;;16.60;9.50;;;5.60;86.80;;;;;;4849325;29;20108;-66
2022/01/08 10:18:49;;;;;;;14.00;7.00;;;5.90;83.60;;;;;;4864368;29;20089;-63
2022/01/08 10:21:20;;;;;;;13.82;8.52;;;6.00;84.80;;;;;;4848593;29;20034;-63
2022/01/08 10:23:52;;;;;;;14.20;7.72;;;6.30;84.50;;;;;;4851031;29;20112;-65
2022/01/08 10:26:20;;;;;;;14.23;7.40;;;6.90;81.20;;;;;;4847275;29;20049;-64
2022/01/08 10:28:52;;;;;;;18.73;8.30;;;8.00;77.20;;;;;;4850156;29;20034;-66
2022/01/08 10:31:39;;;;;;;8.95;6.30;;;8.60;72.70;;;;;;4851724;29;20095;-65
2022/01/08 10:34:15;;;;;;;;;;;9.20;72.40;;;;;;4849960;29;20029;-67
2022/01/08 10:37:02;;;;;;;12.27;6.05;;;9.50;69.00;;;;;;4863285;29;19920;-67
2022/01/08 10:39:34;;;;;;;9.77;5.25;;;9.50;69.50;;;;;;4846327;29;20140;-66
2022/01/08 10:42:07;;;;;;;11.30;6.78;;;9.90;69.10;;;;;;4853791;29;20037;-66
2022/01/08 10:44:33;;;;;;;11.95;6.82;;;9.60;68.40;;;;;;4853910;29;20541;-67
2022/01/08 10:47:05;;;;;;;12.05;6.88;;;9.00;69.80;;;;;;4854317;29;20093;-67
2022/01/08 10:50:00;;;;;;;11.20;5.57;;;8.50;71.00;;;;;;4851341;29;20073;-66
2022/01/08 10:52:26;;;;;;;10.02;7.28;;;8.00;74.00;;;;;;4849208;29;20038;-68
2022/01/08 10:54:58;;;;;;;12.57;6.88;;;7.60;75.40;;;;;;4841719;29;20089;-68
2022/01/08 10:57:35;;;;;;;17.45;9.98;;;7.30;76.90;;;;;;4839234;29;20524;-67
2022/01/08 11:00:03;;;;;;;15.45;8.60;;;7.10;77.80;;;;;;4850328;29;20046;-67
2022/01/08 11:02:29;;;;;;;10.23;6.88;;;6.90;78.10;;;;;;4849270;29;20088;-67
2022/01/08 11:04:55;;;;;;;13.43;6.60;;;6.80;79.40;;;;;;4847840;29;20850;-68
2022/01/08 11:07:23;;;;;;;13.40;8.32;;;6.80;80.10;;;;;;4839240;29;20046;-68
2022/01/08 11:09:54;;;;;;;11.80;7.40;;;6.70;79.60;;;;;;4847547;29;20025;-67
2022/01/08 11:12:35;;;;;;;11.18;6.30;;;6.60;80.10;;;;;;4853327;29;20078;-68
2022/01/08 11:17:50;;;;;;;34.53;11.70;;;6.50;80.00;;;;;;4845298;29;20714;-69
2022/01/08 11:20:22;;;;;;;12.70;6.53;;;6.40;81.10;;;;;;4840615;29;20076;-68
2022/01/08 11:22:50;;;;;;;30.00;11.02;;;6.30;81.20;;;;;;4843779;29;20030;-68
2022/01/08 11:25:28;;;;;;;21.05;7.13;;;6.30;80.60;;;;;;4845158;29;20122;-69
2022/01/08 11:28:05;;;;;;;14.30;7.32;;;6.30;80.00;;;;;;4838955;29;20594;-68
2022/01/08 11:30:50;;;;;;;10.65;5.60;;;6.10;81.00;;;;;;4848771;29;20695;-68
2022/01/08 11:33:30;;;;;;;13.43;7.35;;;6.10;82.10;;;;;;4841120;29;20076;-67
2022/01/08 11:35:57;;;;;;;17.63;8.32;;;6.10;82.70;;;;;;4841162;29;20049;-66
2022/01/08 11:38:26;;;;;;;62.78;23.23;;;6.20;83.10;;;;;;4862383;29;20168;-67
2022/01/08 11:40:53;;;;;;;44.67;17.38;;;6.10;80.80;;;;;;4845944;29;20113;-67
2022/01/08 11:43:23;;;;;;;33.67;13.23;;;6.00;82.20;;;;;;4860362;29;20129;-69
2022/01/08 11:45:52;;;;;;;47.38;19.40;;;6.00;82.90;;;;;;4853419;29;20041;-67
2022/01/08 11:48:23;;;;;;;25.05;11.98;;;6.00;82.30;;;;;;4851767;29;20120;-66
2022/01/08 11:50:56;;;;;;;21.05;9.18;;;6.10;83.10;;;;;;4861884;29;20112;-67
2022/01/08 11:53:26;;;;;;;61.08;21.08;;;6.20;83.80;;;;;;4849782;29;20029;-67
2022/01/08 11:55:53;;;;;;;19.02;8.63;;;6.30;83.00;;;;;;4846994;29;20121;-68
2022/01/08 11:58:26;;;;;;;14.43;7.18;;;6.40;82.70;;;;;;4847759;29;20029;-69
2022/01/08 12:01:02;;;;;;;14.05;6.65;;;6.40;82.00;;;;;;4851000;29;20093;-68
2022/01/08 12:03:28;;;;;;;14.98;6.43;;;6.30;80.30;;;;;;4866726;29;20049;-67
2022/01/08 12:05:54;;;;;;;17.45;8.18;;;6.20;81.50;;;;;;4850278;29;20036;-68
2022/01/08 12:08:55;;;;;;;21.90;8.18;;;6.00;82.20;;;;;;4860901;29;20939;-69
2022/01/08 12:11:21;;;;;;;23.17;9.68;;;5.80;83.60;;;;;;4848231;29;20644;-68
2022/01/08 12:13:48;;;;;;;16.63;9.38;;;5.80;84.80;;;;;;4848142;29;20025;-67
2022/01/08 12:16:38;;;;;;;16.38;7.45;;;5.80;85.70;;;;;;4848914;29;20041;-67
2022/01/08 12:19:06;;;;;;;12.77;7.78;;;5.90;84.60;;;;;;4853259;29;20025;-66
2022/01/08 12:21:40;;;;;;;15.85;7.82;;;5.90;84.30;;;;;;4847535;29;20041;-67
2022/01/08 12:24:27;;;;;;;15.57;8.80;;;6.00;84.50;;;;;;4849175;29;20549;-66
2022/01/08 12:26:56;;;;;;;;;;;6.00;84.60;;;;;;4848902;29;20087;-68
2022/01/08 12:29:38;;;;;;;16.67;7.65;;;6.00;83.80;;;;;;4850476;29;19923;-67
2022/01/08 12:32:27;;;;;;;17.90;7.78;;;6.00;83.60;;;;;;4862679;29;20084;-68
2022/01/08 12:35:01;;;;;;;11.27;6.38;;;6.00;83.80;;;;;;4847748;29;20046;-69
2022/01/08 12:37:41;;;;;;;17.85;7.45;;;5.90;84.80;;;;;;4845454;29;20041;-68
2022/01/08 12:40:13;;;;;;;12.05;6.22;;;6.00;84.30;;;;;;4844630;29;20037;-69
2022/01/08 12:42:44;;;;;;;16.05;6.32;;;6.00;84.90;;;;;;4852535;29;20041;-68
2022/01/08 12:45:31;;;;;;;15.02;6.60;;;6.00;83.60;;;;;;4849664;29;20113;-68
2022/01/08 12:48:00;;;;;;;12.38;7.38;;;6.00;84.10;;;;;;4846644;29;20033;-68
2022/01/08 12:50:42;;;;;;;15.30;6.20;;;6.10;83.20;;;;;;4847513;29;20065;-72
2022/01/08 12:53:08;;;;;;;12.38;6.03;;;6.10;83.10;;;;;;4860076;29;20076;-67
2022/01/08 12:55:55;;;;;;;19.40;6.75;;;6.10;83.70;;;;;;4847713;29;20116;-71
2022/01/08 12:58:29;;;;;;;11.35;6.40;;;6.10;83.30;;;;;;4862409;29;20042;-70
2022/01/08 13:00:55;;;;;;;17.42;7.93;;;6.20;83.70;;;;;;4850615;29;20093;-71
2022/01/08 13:03:26;;;;;;;14.73;7.38;;;6.20;84.10;;;;;;4844618;29;20045;-69
2022/01/08 13:05:52;;;;;;;11.93;5.75;;;6.20;84.40;;;;;;4846241;29;20041;-69
2022/01/08 13:08:23;;;;;;;12.55;5.88;;;6.30;84.00;;;;;;4862948;29;20037;-67
2022/01/08 13:10:50;;;;;;;9.00;5.07;;;6.30;84.80;;;;;;4844603;29;20033;-69
2022/01/08 13:13:15;;;;;;;12.25;5.60;;;6.30;84.70;;;;;;4861250;29;20074;-70
2022/01/08 13:15:41;;;;;;;12.63;5.13;;;6.30;84.90;;;;;;4846153;29;20029;-63
2022/01/08 13:18:18;;;;;;;7.60;5.00;;;6.40;84.10;;;;;;4849049;29;20818;-68
2022/01/08 13:20:44;;;;;;;12.95;5.95;;;6.30;83.90;;;;;;4860995;29;20470;-68
2022/01/08 13:23:10;;;;;;;12.23;4.85;;;6.40;83.90;;;;;;4867911;29;20040;-68
2022/01/08 13:25:37;;;;;;;12.00;6.45;;;6.40;83.70;;;;;;4854639;29;20854;-69
2022/01/08 13:28:02;;;;;;;13.43;5.32;;;6.30;82.80;;;;;;4844742;29;20033;-70